sensor_id;sensor_type;location;lat;lon;timestamp;temperature;humidity
59977;DHT22;45837;51.076;3.578;2022-08-19T00:01:39;24.50;58.00
59977;DHT22;45837;51.076;3.578;2022-08-19T00:04:08;24.50;58.00
59977;DHT22;45837;51.076;3.578;2022-08-19T00:06:36;24.40;58.00
59977;DHT22;45837;51.076;3.578;2022-08-19T00:09:04;24.50;58.10
59977;DHT22;45837;51.076;3.578;2022-08-19T00:11:31;24.40;58.00
59977;DHT22;45837;51.076;3.578;2022-08-19T00:13:57;24.50;58.00
59977;DHT22;45837;51.076;3.578;2022-08-19T00:16:24;24.40;57.90
59977;DHT22;45837;51.076;3.578;2022-08-19T00:18:52;24.40;58.00
59977;DHT22;45837;51.076;3.578;2022-08-19T00:21:18;24.10;57.80
59977;DHT22;45837;51.076;3.578;2022-08-19T00:23:49;24.40;58.00
59977;DHT22;45837;51.076;3.578;2022-08-19T00:26:15;24.40;58.00
59977;DHT22;45837;51.076;3.578;2022-08-19T00:28:41;24.40;57.90
59977;DHT22;45837;51.076;3.578;2022-08-19T00:31:08;24.40;57.90
59977;DHT22;45837;51.076;3.578;2022-08-19T00:33:34;24.40;57.80
59977;DHT22;45837;51.076;3.578;2022-08-19T00:36:02;24.40;57.90
59977;DHT22;45837;51.076;3.578;2022-08-19T00:38:30;24.40;57.90
59977;DHT22;45837;51.076;3.578;2022-08-19T00:40:57;24.30;58.00
59977;DHT22;45837;51.076;3.578;2022-08-19T00:43:26;24.40;57.90
59977;DHT22;45837;51.076;3.578;2022-08-19T00:45:52;24.30;57.80
59977;DHT22;45837;51.076;3.578;2022-08-19T00:48:19;24.30;57.80
59977;DHT22;45837;51.076;3.578;2022-08-19T00:50:48;24.40;57.80
59977;DHT22;45837;51.076;3.578;2022-08-19T00:53:18;24.30;57.60
59977;DHT22;45837;51.076;3.578;2022-08-19T00:55:46;24.40;57.70
59977;DHT22;45837;51.076;3.578;2022-08-19T00:58:20;24.40;57.70
59977;DHT22;45837;51.076;3.578;2022-08-19T01:00:48;24.40;57.70
59977;DHT22;45837;51.076;3.578;2022-08-19T01:03:17;24.30;57.70
59977;DHT22;45837;51.076;3.578;2022-08-19T01:05:46;24.30;57.80
59977;DHT22;45837;51.076;3.578;2022-08-19T01:08:17;24.30;57.80
59977;DHT22;45837;51.076;3.578;2022-08-19T01:10:49;24.30;57.70
59977;DHT22;45837;51.076;3.578;2022-08-19T01:13:17;24.30;57.70
59977;DHT22;45837;51.076;3.578;2022-08-19T01:15:52;24.30;57.70
59977;DHT22;45837;51.076;3.578;2022-08-19T01:18:19;24.30;57.60
59977;DHT22;45837;51.076;3.578;2022-08-19T01:20:46;24.30;57.60
59977;DHT22;45837;51.076;3.578;2022-08-19T01:23:12;24.30;57.60
59977;DHT22;45837;51.076;3.578;2022-08-19T01:25:50;24.30;57.70
59977;DHT22;45837;51.076;3.578;2022-08-19T01:28:23;24.30;57.50
59977;DHT22;45837;51.076;3.578;2022-08-19T01:30:52;24.30;57.60
59977;DHT22;45837;51.076;3.578;2022-08-19T01:33:21;24.30;57.60
59977;DHT22;45837;51.076;3.578;2022-08-19T01:35:47;24.30;57.50
59977;DHT22;45837;51.076;3.578;2022-08-19T01:38:26;24.30;57.50
59977;DHT22;45837;51.076;3.578;2022-08-19T01:40:52;24.20;57.60
59977;DHT22;45837;51.076;3.578;2022-08-19T01:43:19;24.20;57.60
59977;DHT22;45837;51.076;3.578;2022-08-19T01:45:45;24.20;57.60
59977;DHT22;45837;51.076;3.578;2022-08-19T01:48:11;24.20;57.50
59977;DHT22;45837;51.076;3.578;2022-08-19T01:50:38;24.20;57.40
59977;DHT22;45837;51.076;3.578;2022-08-19T01:53:07;24.30;57.50
59977;DHT22;45837;51.076;3.578;2022-08-19T01:55:35;24.30;57.40
59977;DHT22;45837;51.076;3.578;2022-08-19T01:58:02;24.30;57.40
59977;DHT22;45837;51.076;3.578;2022-08-19T02:00:31;24.20;57.40
59977;DHT22;45837;51.076;3.578;2022-08-19T02:02:57;24.20;57.40
59977;DHT22;45837;51.076;3.578;2022-08-19T02:05:24;24.20;57.50
59977;DHT22;45837;51.076;3.578;2022-08-19T02:07:52;24.20;57.50
59977;DHT22;45837;51.076;3.578;2022-08-19T02:10:21;24.20;57.50
59977;DHT22;45837;51.076;3.578;2022-08-19T02:12:48;24.20;57.50
59977;DHT22;45837;51.076;3.578;2022-08-19T02:15:18;24.20;57.50
59977;DHT22;45837;51.076;3.578;2022-08-19T02:17:45;24.20;57.40
59977;DHT22;45837;51.076;3.578;2022-08-19T02:20:12;24.20;57.40
59977;DHT22;45837;51.076;3.578;2022-08-19T02:22:39;24.20;57.30
59977;DHT22;45837;51.076;3.578;2022-08-19T02:25:09;24.20;57.40
59977;DHT22;45837;51.076;3.578;2022-08-19T02:27:35;24.20;57.50
59977;DHT22;45837;51.076;3.578;2022-08-19T02:30:04;24.20;57.40
59977;DHT22;45837;51.076;3.578;2022-08-19T02:32:30;24.20;57.50
59977;DHT22;45837;51.076;3.578;2022-08-19T02:34:56;24.20;58.00
59977;DHT22;45837;51.076;3.578;2022-08-19T02:37:22;24.20;57.50
59977;DHT22;45837;51.076;3.578;2022-08-19T02:40:07;24.20;57.50
59977;DHT22;45837;51.076;3.578;2022-08-19T02:42:35;24.10;57.50
59977;DHT22;45837;51.076;3.578;2022-08-19T02:45:06;24.10;57.70
59977;DHT22;45837;51.076;3.578;2022-08-19T02:47:33;24.10;57.50
59977;DHT22;45837;51.076;3.578;2022-08-19T02:50:01;24.10;57.60
59977;DHT22;45837;51.076;3.578;2022-08-19T02:52:27;24.10;57.60
59977;DHT22;45837;51.076;3.578;2022-08-19T02:54:53;24.10;57.60
59977;DHT22;45837;51.076;3.578;2022-08-19T02:57:22;24.10;57.60
59977;DHT22;45837;51.076;3.578;2022-08-19T02:59:48;24.10;57.60
59977;DHT22;45837;51.076;3.578;2022-08-19T03:02:13;24.10;57.60
59977;DHT22;45837;51.076;3.578;2022-08-19T03:04:40;24.10;57.70
59977;DHT22;45837;51.076;3.578;2022-08-19T03:07:09;24.10;57.70
59977;DHT22;45837;51.076;3.578;2022-08-19T03:09:37;24.00;57.70
59977;DHT22;45837;51.076;3.578;2022-08-19T03:12:09;24.10;57.70
59977;DHT22;45837;51.076;3.578;2022-08-19T03:14:36;24.20;57.70
59977;DHT22;45837;51.076;3.578;2022-08-19T03:17:03;24.10;57.70
59977;DHT22;45837;51.076;3.578;2022-08-19T03:19:37;24.10;57.70
59977;DHT22;45837;51.076;3.578;2022-08-19T03:22:06;24.10;57.70
59977;DHT22;45837;51.076;3.578;2022-08-19T03:24:35;24.10;57.90
59977;DHT22;45837;51.076;3.578;2022-08-19T03:27:01;24.10;57.90
59977;DHT22;45837;51.076;3.578;2022-08-19T03:29:37;24.10;57.90
59977;DHT22;45837;51.076;3.578;2022-08-19T03:32:06;24.10;57.90
59977;DHT22;45837;51.076;3.578;2022-08-19T03:34:33;24.10;58.00
59977;DHT22;45837;51.076;3.578;2022-08-19T03:37:04;24.00;58.10
59977;DHT22;45837;51.076;3.578;2022-08-19T03:39:30;24.00;58.00
59977;DHT22;45837;51.076;3.578;2022-08-19T03:41:56;24.00;58.00
59977;DHT22;45837;51.076;3.578;2022-08-19T03:44:30;24.00;58.00
59977;DHT22;45837;51.076;3.578;2022-08-19T03:47:00;24.00;58.10
59977;DHT22;45837;51.076;3.578;2022-08-19T03:49:28;24.00;58.00
59977;DHT22;45837;51.076;3.578;2022-08-19T03:51:56;24.10;57.90
59977;DHT22;45837;51.076;3.578;2022-08-19T03:54:23;24.10;57.90
59977;DHT22;45837;51.076;3.578;2022-08-19T03:56:51;24.10;57.80
59977;DHT22;45837;51.076;3.578;2022-08-19T03:59:23;24.10;57.80
59977;DHT22;45837;51.076;3.578;2022-08-19T04:02:03;24.10;57.80
59977;DHT22;45837;51.076;3.578;2022-08-19T04:04:31;24.10;57.70
59977;DHT22;45837;51.076;3.578;2022-08-19T04:06:57;24.00;57.80
59977;DHT22;45837;51.076;3.578;2022-08-19T04:09:24;24.10;57.80
59977;DHT22;45837;51.076;3.578;2022-08-19T04:11:55;24.10;57.80
59977;DHT22;45837;51.076;3.578;2022-08-19T04:14:26;24.00;57.80
59977;DHT22;45837;51.076;3.578;2022-08-19T04:16:56;24.10;57.80
59977;DHT22;45837;51.076;3.578;2022-08-19T04:19:22;24.10;57.90
59977;DHT22;45837;51.076;3.578;2022-08-19T04:21:51;24.10;58.40
59977;DHT22;45837;51.076;3.578;2022-08-19T04:24:17;24.10;58.60
59977;DHT22;45837;51.076;3.578;2022-08-19T04:26:44;24.10;58.50
59977;DHT22;45837;51.076;3.578;2022-08-19T04:29:13;24.10;58.50
59977;DHT22;45837;51.076;3.578;2022-08-19T04:31:40;24.10;58.30
59977;DHT22;45837;51.076;3.578;2022-08-19T04:34:09;24.10;58.30
59977;DHT22;45837;51.076;3.578;2022-08-19T04:36:37;24.00;58.30
59977;DHT22;45837;51.076;3.578;2022-08-19T04:39:13;23.80;58.60
59977;DHT22;45837;51.076;3.578;2022-08-19T04:41:39;23.70;59.00
59977;DHT22;45837;51.076;3.578;2022-08-19T04:44:23;23.50;59.30
59977;DHT22;45837;51.076;3.578;2022-08-19T04:46:50;23.40;59.50
59977;DHT22;45837;51.076;3.578;2022-08-19T04:49:18;23.30;59.60
59977;DHT22;45837;51.076;3.578;2022-08-19T04:51:46;23.30;59.80
59977;DHT22;45837;51.076;3.578;2022-08-19T04:54:14;23.20;60.00
59977;DHT22;45837;51.076;3.578;2022-08-19T04:56:40;23.20;60.10
59977;DHT22;45837;51.076;3.578;2022-08-19T04:59:06;23.10;60.20
59977;DHT22;45837;51.076;3.578;2022-08-19T05:01:33;23.10;60.50
59977;DHT22;45837;51.076;3.578;2022-08-19T05:04:03;23.10;60.80
59977;DHT22;45837;51.076;3.578;2022-08-19T05:06:31;23.00;61.10
59977;DHT22;45837;51.076;3.578;2022-08-19T05:08:59;23.00;61.10
59977;DHT22;45837;51.076;3.578;2022-08-19T05:11:29;22.90;61.30
59977;DHT22;45837;51.076;3.578;2022-08-19T05:13:56;22.90;62.00
59977;DHT22;45837;51.076;3.578;2022-08-19T05:16:24;22.90;61.90
59977;DHT22;45837;51.076;3.578;2022-08-19T05:18:50;22.90;62.00
59977;DHT22;45837;51.076;3.578;2022-08-19T05:21:35;22.90;62.10
59977;DHT22;45837;51.076;3.578;2022-08-19T05:24:21;22.90;62.40
59977;DHT22;45837;51.076;3.578;2022-08-19T05:26:49;22.80;62.70
59977;DHT22;45837;51.076;3.578;2022-08-19T05:29:18;22.80;62.90
59977;DHT22;45837;51.076;3.578;2022-08-19T05:31:45;22.80;63.10
59977;DHT22;45837;51.076;3.578;2022-08-19T05:34:11;22.80;63.30
59977;DHT22;45837;51.076;3.578;2022-08-19T05:36:40;22.80;63.50
59977;DHT22;45837;51.076;3.578;2022-08-19T05:39:07;22.80;63.70
59977;DHT22;45837;51.076;3.578;2022-08-19T05:41:34;22.80;63.70
59977;DHT22;45837;51.076;3.578;2022-08-19T05:44:04;22.80;63.70
59977;DHT22;45837;51.076;3.578;2022-08-19T05:46:36;22.90;63.80
59977;DHT22;45837;51.076;3.578;2022-08-19T05:49:04;22.90;63.80
59977;DHT22;45837;51.076;3.578;2022-08-19T05:51:34;22.90;63.70
59977;DHT22;45837;51.076;3.578;2022-08-19T05:54:02;23.00;64.20
59977;DHT22;45837;51.076;3.578;2022-08-19T05:56:28;23.10;63.20
59977;DHT22;45837;51.076;3.578;2022-08-19T05:58:56;23.20;63.40
59977;DHT22;45837;51.076;3.578;2022-08-19T06:01:24;23.30;63.00
59977;DHT22;45837;51.076;3.578;2022-08-19T06:03:51;23.40;62.90
59977;DHT22;45837;51.076;3.578;2022-08-19T06:06:17;23.40;62.80
59977;DHT22;45837;51.076;3.578;2022-08-19T06:08:44;23.50;62.90
59977;DHT22;45837;51.076;3.578;2022-08-19T06:11:25;23.60;62.70
59977;DHT22;45837;51.076;3.578;2022-08-19T06:14:01;23.60;62.60
59977;DHT22;45837;51.076;3.578;2022-08-19T06:16:28;23.60;62.70
59977;DHT22;45837;51.076;3.578;2022-08-19T06:18:55;23.70;62.80
59977;DHT22;45837;51.076;3.578;2022-08-19T06:21:24;23.70;62.80
59977;DHT22;45837;51.076;3.578;2022-08-19T06:23:51;23.80;62.80
59977;DHT22;45837;51.076;3.578;2022-08-19T06:26:18;23.80;62.80
59977;DHT22;45837;51.076;3.578;2022-08-19T06:28:46;23.80;62.60
59977;DHT22;45837;51.076;3.578;2022-08-19T06:31:14;23.90;63.00
59977;DHT22;45837;51.076;3.578;2022-08-19T06:33:41;23.90;62.90
59977;DHT22;45837;51.076;3.578;2022-08-19T06:36:07;23.90;62.90
59977;DHT22;45837;51.076;3.578;2022-08-19T06:38:34;23.90;63.00
59977;DHT22;45837;51.076;3.578;2022-08-19T06:41:01;23.90;63.10
59977;DHT22;45837;51.076;3.578;2022-08-19T06:43:27;23.90;63.30
59977;DHT22;45837;51.076;3.578;2022-08-19T06:45:53;23.90;63.20
59977;DHT22;45837;51.076;3.578;2022-08-19T06:48:18;24.00;63.50
59977;DHT22;45837;51.076;3.578;2022-08-19T06:50:44;24.00;63.30
59977;DHT22;45837;51.076;3.578;2022-08-19T06:53:10;24.00;63.60
59977;DHT22;45837;51.076;3.578;2022-08-19T06:55:36;23.90;63.70
59977;DHT22;45837;51.076;3.578;2022-08-19T06:58:04;24.00;63.60
59977;DHT22;45837;51.076;3.578;2022-08-19T07:00:31;23.90;63.80
59977;DHT22;45837;51.076;3.578;2022-08-19T07:02:57;24.10;63.70
59977;DHT22;45837;51.076;3.578;2022-08-19T07:05:24;24.00;63.90
59977;DHT22;45837;51.076;3.578;2022-08-19T07:07:50;24.10;64.10
59977;DHT22;45837;51.076;3.578;2022-08-19T07:10:15;24.10;64.50
59977;DHT22;45837;51.076;3.578;2022-08-19T07:12:41;24.10;65.00
59977;DHT22;45837;51.076;3.578;2022-08-19T07:15:07;24.10;64.60
59977;DHT22;45837;51.076;3.578;2022-08-19T07:17:35;24.10;64.90
59977;DHT22;45837;51.076;3.578;2022-08-19T07:20:03;24.10;65.00
59977;DHT22;45837;51.076;3.578;2022-08-19T07:22:29;24.10;64.80
59977;DHT22;45837;51.076;3.578;2022-08-19T07:24:56;24.10;65.20
59977;DHT22;45837;51.076;3.578;2022-08-19T07:27:21;24.00;65.40
59977;DHT22;45837;51.076;3.578;2022-08-19T07:29:53;24.00;65.50
59977;DHT22;45837;51.076;3.578;2022-08-19T07:32:18;24.00;65.80
59977;DHT22;45837;51.076;3.578;2022-08-19T07:34:44;24.00;65.90
59977;DHT22;45837;51.076;3.578;2022-08-19T07:37:13;24.00;66.10
59977;DHT22;45837;51.076;3.578;2022-08-19T07:39:41;23.90;66.20
59977;DHT22;45837;51.076;3.578;2022-08-19T07:42:09;23.90;66.30
59977;DHT22;45837;51.076;3.578;2022-08-19T07:44:36;23.90;66.40
59977;DHT22;45837;51.076;3.578;2022-08-19T07:47:03;23.90;66.50
59977;DHT22;45837;51.076;3.578;2022-08-19T07:49:29;23.90;66.50
59977;DHT22;45837;51.076;3.578;2022-08-19T07:51:58;23.90;66.90
59977;DHT22;45837;51.076;3.578;2022-08-19T07:54:29;23.90;67.00
59977;DHT22;45837;51.076;3.578;2022-08-19T07:56:56;23.90;66.90
59977;DHT22;45837;51.076;3.578;2022-08-19T07:59:22;23.90;67.00
59977;DHT22;45837;51.076;3.578;2022-08-19T08:01:50;23.90;67.00
59977;DHT22;45837;51.076;3.578;2022-08-19T08:04:17;23.90;67.00
59977;DHT22;45837;51.076;3.578;2022-08-19T08:07:02;23.90;67.10
59977;DHT22;45837;51.076;3.578;2022-08-19T08:09:46;23.90;66.80
59977;DHT22;45837;51.076;3.578;2022-08-19T08:12:16;23.90;66.70
59977;DHT22;45837;51.076;3.578;2022-08-19T08:14:46;23.90;66.80
59977;DHT22;45837;51.076;3.578;2022-08-19T08:17:17;24.00;67.20
59977;DHT22;45837;51.076;3.578;2022-08-19T08:19:44;23.90;67.10
59977;DHT22;45837;51.076;3.578;2022-08-19T08:22:11;24.00;67.30
59977;DHT22;45837;51.076;3.578;2022-08-19T08:25:02;23.90;66.90
59977;DHT22;45837;51.076;3.578;2022-08-19T08:27:28;24.00;66.80
59977;DHT22;45837;51.076;3.578;2022-08-19T08:29:57;24.00;66.80
59977;DHT22;45837;51.076;3.578;2022-08-19T08:32:23;24.10;67.10
59977;DHT22;45837;51.076;3.578;2022-08-19T08:34:49;24.10;67.30
59977;DHT22;45837;51.076;3.578;2022-08-19T08:37:14;24.10;67.40
59977;DHT22;45837;51.076;3.578;2022-08-19T08:39:42;24.00;67.30
59977;DHT22;45837;51.076;3.578;2022-08-19T08:42:21;24.10;67.50
59977;DHT22;45837;51.076;3.578;2022-08-19T08:45:13;24.00;67.10
59977;DHT22;45837;51.076;3.578;2022-08-19T08:47:44;24.10;67.20
59977;DHT22;45837;51.076;3.578;2022-08-19T08:50:29;24.10;67.20
59977;DHT22;45837;51.076;3.578;2022-08-19T08:52:58;24.00;67.00
59977;DHT22;45837;51.076;3.578;2022-08-19T08:55:27;24.10;66.90
59977;DHT22;45837;51.076;3.578;2022-08-19T08:58:13;24.10;66.50
59977;DHT22;45837;51.076;3.578;2022-08-19T09:00:44;24.10;66.30
59977;DHT22;45837;51.076;3.578;2022-08-19T09:03:23;24.10;66.30
59977;DHT22;45837;51.076;3.578;2022-08-19T09:06:03;24.20;66.20
59977;DHT22;45837;51.076;3.578;2022-08-19T09:08:45;24.20;66.10
59977;DHT22;45837;51.076;3.578;2022-08-19T09:12:05;24.20;66.00
59977;DHT22;45837;51.076;3.578;2022-08-19T09:14:34;24.20;65.80
59977;DHT22;45837;51.076;3.578;2022-08-19T09:17:01;24.30;65.80
59977;DHT22;45837;51.076;3.578;2022-08-19T09:19:35;24.20;65.80
59977;DHT22;45837;51.076;3.578;2022-08-19T09:22:01;24.20;65.60
59977;DHT22;45837;51.076;3.578;2022-08-19T09:24:27;24.20;65.60
59977;DHT22;45837;51.076;3.578;2022-08-19T09:26:53;24.20;65.70
59977;DHT22;45837;51.076;3.578;2022-08-19T09:29:19;24.20;65.70
59977;DHT22;45837;51.076;3.578;2022-08-19T09:31:46;24.30;65.60
59977;DHT22;45837;51.076;3.578;2022-08-19T09:34:12;24.30;65.50
59977;DHT22;45837;51.076;3.578;2022-08-19T09:36:37;24.30;65.30
59977;DHT22;45837;51.076;3.578;2022-08-19T09:39:05;24.30;65.00
59977;DHT22;45837;51.076;3.578;2022-08-19T09:41:31;24.30;65.10
59977;DHT22;45837;51.076;3.578;2022-08-19T09:43:58;24.30;65.10
59977;DHT22;45837;51.076;3.578;2022-08-19T09:46:25;24.30;65.10
59977;DHT22;45837;51.076;3.578;2022-08-19T09:48:52;24.30;65.30
59977;DHT22;45837;51.076;3.578;2022-08-19T09:51:22;24.30;64.90
59977;DHT22;45837;51.076;3.578;2022-08-19T09:53:49;24.40;64.80
59977;DHT22;45837;51.076;3.578;2022-08-19T09:56:17;24.30;64.90
59977;DHT22;45837;51.076;3.578;2022-08-19T09:58:43;24.40;65.00
59977;DHT22;45837;51.076;3.578;2022-08-19T10:01:19;24.30;65.20
59977;DHT22;45837;51.076;3.578;2022-08-19T10:03:49;24.40;65.10
59977;DHT22;45837;51.076;3.578;2022-08-19T10:06:15;24.40;65.10
59977;DHT22;45837;51.076;3.578;2022-08-19T10:08:41;24.40;65.00
59977;DHT22;45837;51.076;3.578;2022-08-19T10:11:10;24.40;65.20
59977;DHT22;45837;51.076;3.578;2022-08-19T10:13:36;24.40;65.90
59977;DHT22;45837;51.076;3.578;2022-08-19T10:16:06;24.40;65.10
59977;DHT22;45837;51.076;3.578;2022-08-19T10:18:33;24.50;65.10
59977;DHT22;45837;51.076;3.578;2022-08-19T10:21:06;24.50;65.90
59977;DHT22;45837;51.076;3.578;2022-08-19T10:23:35;24.60;65.80
59977;DHT22;45837;51.076;3.578;2022-08-19T10:26:02;24.50;65.70
59977;DHT22;45837;51.076;3.578;2022-08-19T10:28:29;24.50;65.70
59977;DHT22;45837;51.076;3.578;2022-08-19T10:31:01;24.50;65.50
59977;DHT22;45837;51.076;3.578;2022-08-19T10:33:28;24.50;65.50
59977;DHT22;45837;51.076;3.578;2022-08-19T10:36:13;24.50;65.30
59977;DHT22;45837;51.076;3.578;2022-08-19T10:38:44;24.60;64.90
59977;DHT22;45837;51.076;3.578;2022-08-19T10:41:22;24.60;65.10
59977;DHT22;45837;51.076;3.578;2022-08-19T10:43:56;24.50;64.70
59977;DHT22;45837;51.076;3.578;2022-08-19T10:46:25;24.60;64.60
59977;DHT22;45837;51.076;3.578;2022-08-19T10:48:51;24.50;64.40
59977;DHT22;45837;51.076;3.578;2022-08-19T10:51:20;24.60;64.70
59977;DHT22;45837;51.076;3.578;2022-08-19T10:54:10;24.60;64.30
59977;DHT22;45837;51.076;3.578;2022-08-19T10:56:38;24.60;64.30
59977;DHT22;45837;51.076;3.578;2022-08-19T10:59:26;24.60;64.20
59977;DHT22;45837;51.076;3.578;2022-08-19T11:02:00;24.60;64.10
59977;DHT22;45837;51.076;3.578;2022-08-19T11:04:27;24.60;64.30
59977;DHT22;45837;51.076;3.578;2022-08-19T11:06:53;24.60;64.60
59977;DHT22;45837;51.076;3.578;2022-08-19T11:09:23;24.60;64.80
59977;DHT22;45837;51.076;3.578;2022-08-19T11:11:51;24.60;64.60
59977;DHT22;45837;51.076;3.578;2022-08-19T11:14:19;24.60;64.80
59977;DHT22;45837;51.076;3.578;2022-08-19T11:16:47;24.70;65.00
59977;DHT22;45837;51.076;3.578;2022-08-19T11:19:13;24.70;64.50
59977;DHT22;45837;51.076;3.578;2022-08-19T11:21:43;24.70;64.50
59977;DHT22;45837;51.076;3.578;2022-08-19T11:24:18;24.70;64.40
59977;DHT22;45837;51.076;3.578;2022-08-19T11:26:46;24.60;64.50
59977;DHT22;45837;51.076;3.578;2022-08-19T11:29:15;24.70;64.40
59977;DHT22;45837;51.076;3.578;2022-08-19T11:31:45;24.60;64.40
59977;DHT22;45837;51.076;3.578;2022-08-19T11:34:14;24.60;64.30
59977;DHT22;45837;51.076;3.578;2022-08-19T11:36:43;24.60;64.30
59977;DHT22;45837;51.076;3.578;2022-08-19T11:39:12;24.60;64.30
59977;DHT22;45837;51.076;3.578;2022-08-19T11:41:38;24.70;64.40
59977;DHT22;45837;51.076;3.578;2022-08-19T11:44:04;24.70;64.50
59977;DHT22;45837;51.076;3.578;2022-08-19T11:46:34;24.70;64.40
59977;DHT22;45837;51.076;3.578;2022-08-19T11:49:02;24.70;64.40
59977;DHT22;45837;51.076;3.578;2022-08-19T11:51:29;24.70;64.30
59977;DHT22;45837;51.076;3.578;2022-08-19T11:53:56;24.70;64.20
59977;DHT22;45837;51.076;3.578;2022-08-19T11:56:26;24.70;64.30
59977;DHT22;45837;51.076;3.578;2022-08-19T11:58:53;24.70;64.30
59977;DHT22;45837;51.076;3.578;2022-08-19T12:01:26;24.70;64.20
59977;DHT22;45837;51.076;3.578;2022-08-19T12:03:53;24.70;64.00
59977;DHT22;45837;51.076;3.578;2022-08-19T12:06:25;24.80;64.00
59977;DHT22;45837;51.076;3.578;2022-08-19T12:08:59;24.80;64.00
59977;DHT22;45837;51.076;3.578;2022-08-19T12:11:25;24.80;64.00
59977;DHT22;45837;51.076;3.578;2022-08-19T12:13:51;24.80;64.10
59977;DHT22;45837;51.076;3.578;2022-08-19T12:16:22;24.80;64.40
59977;DHT22;45837;51.076;3.578;2022-08-19T12:18:49;24.90;64.30
59977;DHT22;45837;51.076;3.578;2022-08-19T12:21:19;24.80;64.30
59977;DHT22;45837;51.076;3.578;2022-08-19T12:23:47;24.80;64.50
59977;DHT22;45837;51.076;3.578;2022-08-19T12:26:13;24.90;64.40
59977;DHT22;45837;51.076;3.578;2022-08-19T12:28:39;24.80;64.20
59977;DHT22;45837;51.076;3.578;2022-08-19T12:31:06;24.80;64.40
59977;DHT22;45837;51.076;3.578;2022-08-19T12:33:32;24.90;64.30
59977;DHT22;45837;51.076;3.578;2022-08-19T12:36:04;24.90;64.30
59977;DHT22;45837;51.076;3.578;2022-08-19T12:38:31;24.90;65.10
59977;DHT22;45837;51.076;3.578;2022-08-19T12:40:58;24.90;64.20
59977;DHT22;45837;51.076;3.578;2022-08-19T12:43:24;24.90;64.40
59977;DHT22;45837;51.076;3.578;2022-08-19T12:45:50;24.90;64.50
59977;DHT22;45837;51.076;3.578;2022-08-19T12:48:16;24.90;64.60
59977;DHT22;45837;51.076;3.578;2022-08-19T12:50:44;24.90;64.30
59977;DHT22;45837;51.076;3.578;2022-08-19T12:53:14;24.90;64.10
59977;DHT22;45837;51.076;3.578;2022-08-19T12:55:41;25.00;64.10
59977;DHT22;45837;51.076;3.578;2022-08-19T12:58:08;25.00;64.00
59977;DHT22;45837;51.076;3.578;2022-08-19T13:00:34;24.90;64.10
59977;DHT22;45837;51.076;3.578;2022-08-19T13:03:00;25.00;64.10
59977;DHT22;45837;51.076;3.578;2022-08-19T13:05:29;25.00;64.60
59977;DHT22;45837;51.076;3.578;2022-08-19T13:07:57;25.00;65.00
59977;DHT22;45837;51.076;3.578;2022-08-19T13:10:27;25.00;65.70
59977;DHT22;45837;51.076;3.578;2022-08-19T13:12:54;25.00;66.00
59977;DHT22;45837;51.076;3.578;2022-08-19T13:15:22;24.90;66.40
59977;DHT22;45837;51.076;3.578;2022-08-19T13:17:49;24.90;66.70
59977;DHT22;45837;51.076;3.578;2022-08-19T13:20:19;24.90;67.30
59977;DHT22;45837;51.076;3.578;2022-08-19T13:22:48;24.90;67.40
59977;DHT22;45837;51.076;3.578;2022-08-19T13:25:15;24.80;67.80
59977;DHT22;45837;51.076;3.578;2022-08-19T13:27:43;24.80;67.80
59977;DHT22;45837;51.076;3.578;2022-08-19T13:30:11;24.90;68.20
59977;DHT22;45837;51.076;3.578;2022-08-19T13:32:56;24.80;68.20
59977;DHT22;45837;51.076;3.578;2022-08-19T13:35:48;24.80;68.40
59977;DHT22;45837;51.076;3.578;2022-08-19T13:38:20;24.80;68.70
59977;DHT22;45837;51.076;3.578;2022-08-19T13:40:47;24.80;68.50
59977;DHT22;45837;51.076;3.578;2022-08-19T13:43:13;24.80;68.40
59977;DHT22;45837;51.076;3.578;2022-08-19T13:45:39;24.90;68.60
59977;DHT22;45837;51.076;3.578;2022-08-19T13:48:06;24.80;68.60
59977;DHT22;45837;51.076;3.578;2022-08-19T13:50:39;24.90;69.00
59977;DHT22;45837;51.076;3.578;2022-08-19T13:53:08;24.90;69.50
59977;DHT22;45837;51.076;3.578;2022-08-19T13:55:34;24.90;69.70
59977;DHT22;45837;51.076;3.578;2022-08-19T13:58:01;25.00;69.40
59977;DHT22;45837;51.076;3.578;2022-08-19T14:00:31;24.90;69.10
59977;DHT22;45837;51.076;3.578;2022-08-19T14:02:57;25.00;68.90
59977;DHT22;45837;51.076;3.578;2022-08-19T14:05:25;25.00;69.10
59977;DHT22;45837;51.076;3.578;2022-08-19T14:07:51;24.90;69.00
59977;DHT22;45837;51.076;3.578;2022-08-19T14:10:18;24.90;68.80
59977;DHT22;45837;51.076;3.578;2022-08-19T14:12:44;25.00;68.40
59977;DHT22;45837;51.076;3.578;2022-08-19T14:15:11;25.00;68.30
59977;DHT22;45837;51.076;3.578;2022-08-19T14:17:42;24.90;68.10
59977;DHT22;45837;51.076;3.578;2022-08-19T14:20:11;24.90;68.20
59977;DHT22;45837;51.076;3.578;2022-08-19T14:22:39;25.00;68.00
59977;DHT22;45837;51.076;3.578;2022-08-19T14:25:11;25.00;67.90
59977;DHT22;45837;51.076;3.578;2022-08-19T14:27:39;25.00;68.10
59977;DHT22;45837;51.076;3.578;2022-08-19T14:30:07;25.00;68.00
59977;DHT22;45837;51.076;3.578;2022-08-19T14:32:34;25.00;67.60
59977;DHT22;45837;51.076;3.578;2022-08-19T14:35:01;25.00;67.50
59977;DHT22;45837;51.076;3.578;2022-08-19T14:37:29;25.00;67.60
59977;DHT22;45837;51.076;3.578;2022-08-19T14:39:55;25.00;67.40
59977;DHT22;45837;51.076;3.578;2022-08-19T14:42:21;25.00;67.40
59977;DHT22;45837;51.076;3.578;2022-08-19T14:44:47;25.00;67.50
59977;DHT22;45837;51.076;3.578;2022-08-19T14:47:13;25.00;67.40
59977;DHT22;45837;51.076;3.578;2022-08-19T14:49:39;25.10;67.20
59977;DHT22;45837;51.076;3.578;2022-08-19T14:52:05;25.10;66.80
59977;DHT22;45837;51.076;3.578;2022-08-19T14:54:31;25.10;66.70
59977;DHT22;45837;51.076;3.578;2022-08-19T14:56:57;25.10;66.70
59977;DHT22;45837;51.076;3.578;2022-08-19T14:59:23;25.10;66.90
59977;DHT22;45837;51.076;3.578;2022-08-19T15:01:49;25.10;66.60
59977;DHT22;45837;51.076;3.578;2022-08-19T15:04:14;25.20;66.60
59977;DHT22;45837;51.076;3.578;2022-08-19T15:06:40;25.20;66.40
59977;DHT22;45837;51.076;3.578;2022-08-19T15:09:09;25.20;66.30
59977;DHT22;45837;51.076;3.578;2022-08-19T15:11:35;25.20;66.30
59977;DHT22;45837;51.076;3.578;2022-08-19T15:14:02;25.20;66.40
59977;DHT22;45837;51.076;3.578;2022-08-19T15:16:28;25.20;66.30
59977;DHT22;45837;51.076;3.578;2022-08-19T15:18:56;25.20;66.30
59977;DHT22;45837;51.076;3.578;2022-08-19T15:21:24;25.20;66.30
59977;DHT22;45837;51.076;3.578;2022-08-19T15:23:51;25.20;66.10
59977;DHT22;45837;51.076;3.578;2022-08-19T15:26:19;25.20;66.10
59977;DHT22;45837;51.076;3.578;2022-08-19T15:28:45;25.20;66.00
59977;DHT22;45837;51.076;3.578;2022-08-19T15:31:12;25.20;66.00
59977;DHT22;45837;51.076;3.578;2022-08-19T15:33:39;25.20;66.10
59977;DHT22;45837;51.076;3.578;2022-08-19T15:36:10;25.10;66.00
59977;DHT22;45837;51.076;3.578;2022-08-19T15:38:37;25.20;65.90
59977;DHT22;45837;51.076;3.578;2022-08-19T15:41:05;25.10;65.80